Time;durP1;ratioP1;P1;durP2;ratioP2;P2;SDS_P1;SDS_P2;PMS_P1;PMS_P2;Temp;Humidity;BMP_temperature;BMP_pressure;BME280_temperature;BME280_humidity;BME280_pressure;Samples;Min_cycle;Max_cycle;Signal;HPM_P1;HPM_P2
2022/11/20 00:00:49;;;;;;;4.28;2.45;;;;;;;;;;5065899;28;20032;-76
2022/11/20 00:03:15;;;;;;;3.88;2.40;;;;;;;;;;5067220;28;20028;-75
2022/11/20 00:05:41;;;;;;;7.25;3.60;;;;;;;;;;5068581;28;20028;-75
2022/11/20 00:08:07;;;;;;;5.95;2.95;;;;;;;;;;5065777;28;20028;-75
2022/11/20 00:10:33;;;;;;;6.13;3.00;;;;;;;;;;5060882;28;20051;-75
2022/11/20 00:12:59;;;;;;;6.20;2.63;;;;;;;;;;5062215;28;20408;-75
2022/11/20 00:15:25;;;;;;;7.60;2.70;;;;;;;;;;5061452;28;20024;-75
2022/11/20 00:17:51;;;;;;;5.82;3.78;;;;;;;;;;5061698;28;20032;-75
2022/11/20 00:20:17;;;;;;;6.10;2.97;;;;;;;;;;5062009;28;20029;-75
2022/11/20 00:22:43;;;;;;;7.38;2.92;;;;;;;;;;5064793;28;20364;-75
2022/11/20 00:25:09;;;;;;;6.72;3.47;;;;;;;;;;5064181;28;20113;-75
2022/11/20 00:27:38;;;;;;;8.43;3.53;;;;;;;;;;5064494;28;20029;-76
2022/11/20 00:30:04;;;;;;;6.70;3.00;;;;;;;;;;5064686;28;20025;-75
2022/11/20 00:32:30;;;;;;;3.28;1.88;;;;;;;;;;5062840;28;20025;-75
2022/11/20 00:34:56;;;;;;;3.45;2.17;;;;;;;;;;5062017;28;20032;-75
2022/11/20 00:37:22;;;;;;;4.30;2.88;;;;;;;;;;5059313;28;20046;-75
2022/11/20 00:39:50;;;;;;;5.35;2.90;;;;;;;;;;5060778;28;22099;-75
2022/11/20 00:42:16;;;;;;;6.85;2.50;;;;;;;;;;5064589;28;20036;-75
2022/11/20 00:44:42;;;;;;;4.45;2.20;;;;;;;;;;5061337;28;20535;-75
2022/11/20 00:47:08;;;;;;;6.50;3.72;;;;;;;;;;5054526;28;20077;-75
2022/11/20 00:49:34;;;;;;;3.75;2.67;;;;;;;;;;5058708;28;20068;-75
2022/11/20 00:52:00;;;;;;;3.05;1.98;;;;;;;;;;5053965;28;20115;-75
2022/11/20 00:54:26;;;;;;;3.03;2.35;;;;;;;;;;5062013;28;20052;-75
2022/11/20 00:56:55;;;;;;;5.25;2.75;;;;;;;;;;5061066;28;20143;-75
2022/11/20 00:59:21;;;;;;;6.07;2.83;;;;;;;;;;5062481;28;20056;-75
2022/11/20 01:01:53;;;;;;;9.55;3.42;;;;;;;;;;5059779;28;20466;-75
2022/11/20 01:04:19;;;;;;;4.75;2.20;;;;;;;;;;5063006;28;20137;-75
2022/11/20 01:06:45;;;;;;;5.10;2.15;;;;;;;;;;5058137;28;20597;-75
2022/11/20 01:09:12;;;;;;;4.18;2.58;;;;;;;;;;5059630;28;20037;-75
2022/11/20 01:11:40;;;;;;;4.28;2.95;;;;;;;;;;5060418;28;20028;-75
2022/11/20 01:14:07;;;;;;;4.15;2.60;;;;;;;;;;5063526;28;20399;-75
2022/11/20 01:16:37;;;;;;;5.55;2.88;;;;;;;;;;5060413;28;20048;-75
2022/11/20 01:19:05;;;;;;;5.50;2.83;;;;;;;;;;5067244;28;20047;-76
2022/11/20 01:21:32;;;;;;;7.13;3.20;;;;;;;;;;5063356;28;20029;-75
2022/11/20 01:23:58;;;;;;;3.35;2.47;;;;;;;;;;5065141;28;20032;-75
2022/11/20 01:26:25;;;;;;;10.80;3.60;;;;;;;;;;5063704;28;20039;-76
2022/11/20 01:28:51;;;;;;;6.75;3.17;;;;;;;;;;5064679;28;20053;-75
2022/11/20 01:31:19;;;;;;;5.18;3.05;;;;;;;;;;5068603;28;20166;-75
2022/11/20 01:33:45;;;;;;;7.10;2.85;;;;;;;;;;5062150;28;20594;-76
2022/11/20 01:36:12;;;;;;;4.25;2.55;;;;;;;;;;5075988;28;20020;-75
2022/11/20 01:38:38;;;;;;;5.38;2.65;;;;;;;;;;5068625;28;20040;-74
2022/11/20 01:41:04;;;;;;;4.93;2.67;;;;;;;;;;5065952;28;20024;-75
2022/11/20 01:43:30;;;;;;;7.47;3.80;;;;;;;;;;5065047;28;20461;-75
2022/11/20 01:45:59;;;;;;;5.07;2.75;;;;;;;;;;5067473;28;20017;-76
2022/11/20 01:48:27;;;;;;;7.38;3.15;;;;;;;;;;5059729;28;20072;-75
2022/11/20 01:50:53;;;;;;;6.78;3.05;;;;;;;;;;5063594;28;20036;-75
2022/11/20 01:53:21;;;;;;;7.75;3.72;;;;;;;;;;5070022;28;20033;-75
2022/11/20 01:55:52;;;;;;;5.40;2.70;;;;;;;;;;5067959;28;20593;-75
2022/11/20 01:58:20;;;;;;;7.28;3.72;;;;;;;;;;5067431;28;20111;-75
2022/11/20 02:00:46;;;;;;;12.02;3.05;;;;;;;;;;5066758;28;20168;-75
2022/11/20 02:03:16;;;;;;;5.90;2.95;;;;;;;;;;5062287;28;20120;-75
2022/11/20 02:06:00;;;;;;;3.70;2.30;;;;;;;;;;5057547;28;20591;-75
2022/11/20 02:08:26;;;;;;;4.72;2.33;;;;;;;;;;5059422;28;20079;-75
2022/11/20 02:10:52;;;;;;;5.40;3.00;;;;;;;;;;5068214;28;20033;-75
2022/11/20 02:16:03;;;;;;;5.97;3.15;;;;;;;;;;5068378;28;20536;-74
2022/11/20 02:18:30;;;;;;;7.57;3.22;;;;;;;;;;5057871;28;20071;-75
2022/11/20 02:21:01;;;;;;;10.13;3.53;;;;;;;;;;5059268;28;20115;-76
2022/11/20 02:23:39;;;;;;;5.20;3.50;;;;;;;;;;5057353;28;20085;-75
2022/11/20 02:26:06;;;;;;;8.38;3.92;;;;;;;;;;5070959;28;20032;-75
2022/11/20 02:28:32;;;;;;;3.63;2.40;;;;;;;;;;5066378;28;20233;-77
2022/11/20 02:30:58;;;;;;;5.95;3.33;;;;;;;;;;5062982;28;20017;-75
2022/11/20 02:33:24;;;;;;;3.75;2.40;;;;;;;;;;5059927;28;20024;-74
2022/11/20 02:35:50;;;;;;;6.55;2.83;;;;;;;;;;5055961;28;20035;-75
2022/11/20 02:38:16;;;;;;;5.05;2.35;;;;;;;;;;5069699;28;20780;-75
2022/11/20 02:40:42;;;;;;;5.20;3.00;;;;;;;;;;5064965;28;20036;-76
2022/11/20 02:43:08;;;;;;;3.95;2.85;;;;;;;;;;5062781;28;20029;-76
2022/11/20 02:45:34;;;;;;;6.10;2.63;;;;;;;;;;5060388;28;20034;-76
2022/11/20 02:48:00;;;;;;;6.65;3.47;;;;;;;;;;5065385;28;20099;-76
2022/11/20 02:50:26;;;;;;;7.80;4.75;;;;;;;;;;5068084;28;20459;-76
2022/11/20 02:52:52;;;;;;;4.20;2.33;;;;;;;;;;5068796;28;20059;-76
2022/11/20 02:55:18;;;;;;;7.85;3.33;;;;;;;;;;5061182;28;20171;-76
2022/11/20 02:57:43;;;;;;;5.72;3.15;;;;;;;;;;5066356;28;20025;-76
2022/11/20 03:00:10;;;;;;;5.70;3.20;;;;;;;;;;5069230;28;20092;-76
2022/11/20 03:02:36;;;;;;;4.53;2.55;;;;;;;;;;5057113;28;20029;-76
2022/11/20 03:05:02;;;;;;;4.43;3.08;;;;;;;;;;5067533;28;20850;-77
2022/11/20 03:07:28;;;;;;;4.18;2.63;;;;;;;;;;5067594;28;20028;-76
2022/11/20 03:09:54;;;;;;;7.30;3.20;;;;;;;;;;5068037;28;20031;-77
2022/11/20 03:12:20;;;;;;;9.40;3.58;;;;;;;;;;5069995;28;20079;-76
2022/11/20 03:14:46;;;;;;;7.03;2.97;;;;;;;;;;5065144;28;20128;-76
2022/11/20 03:17:12;;;;;;;9.77;3.38;;;;;;;;;;5054988;28;20478;-76
2022/11/20 03:19:37;;;;;;;7.15;2.83;;;;;;;;;;5059654;28;20028;-76
2022/11/20 03:22:03;;;;;;;9.00;3.08;;;;;;;;;;5069847;28;20033;-76
2022/11/20 03:24:29;;;;;;;7.45;3.55;;;;;;;;;;5066538;28;20050;-76
2022/11/20 03:26:55;;;;;;;7.95;3.65;;;;;;;;;;5063027;28;20040;-76
2022/11/20 03:29:21;;;;;;;4.00;2.92;;;;;;;;;;5063562;28;20475;-76
2022/11/20 03:31:47;;;;;;;7.03;3.20;;;;;;;;;;5058676;28;20036;-76
2022/11/20 03:34:13;;;;;;;6.93;3.88;;;;;;;;;;5066293;28;20552;-76
2022/11/20 03:36:39;;;;;;;5.82;3.45;;;;;;;;;;5064913;28;20024;-76
2022/11/20 03:39:05;;;;;;;7.65;3.95;;;;;;;;;;5067553;28;20027;-76
2022/11/20 03:41:32;;;;;;;5.88;3.03;;;;;;;;;;5065845;28;21557;-76
2022/11/20 03:44:01;;;;;;;8.68;3.42;;;;;;;;;;5055233;28;20037;-76
2022/11/20 03:46:30;;;;;;;8.57;3.72;;;;;;;;;;5068045;28;20530;-76
2022/11/20 03:48:57;;;;;;;7.82;3.85;;;;;;;;;;5064061;28;20489;-76
2022/11/20 03:51:24;;;;;;;4.85;3.38;;;;;;;;;;5064630;28;20040;-76
2022/11/20 03:53:51;;;;;;;5.75;3.20;;;;;;;;;;5058492;28;20025;-76
2022/11/20 03:56:18;;;;;;;7.25;3.55;;;;;;;;;;5068882;28;20032;-77
2022/11/20 03:58:44;;;;;;;7.13;3.08;;;;;;;;;;5067677;28;20029;-77
2022/11/20 04:01:10;;;;;;;6.47;3.45;;;;;;;;;;5058955;28;20153;-77
2022/11/20 04:03:37;;;;;;;4.45;2.85;;;;;;;;;;5068298;28;20113;-76
2022/11/20 04:06:04;;;;;;;4.78;3.03;;;;;;;;;;5063861;28;20028;-76
2022/11/20 04:08:30;;;;;;;5.72;3.42;;;;;;;;;;5067262;28;20039;-76
2022/11/20 04:10:56;;;;;;;7.68;4.13;;;;;;;;;;5062692;28;20082;-76
2022/11/20 04:13:22;;;;;;;5.93;3.38;;;;;;;;;;5057714;28;20033;-76
2022/11/20 04:15:48;;;;;;;5.05;3.38;;;;;;;;;;5059472;28;20075;-76
2022/11/20 04:18:14;;;;;;;8.02;3.80;;;;;;;;;;5054817;28;20033;-76
2022/11/20 04:20:41;;;;;;;8.90;4.18;;;;;;;;;;5054024;28;20169;-76
2022/11/20 04:23:22;;;;;;;7.32;3.80;;;;;;;;;;5053417;28;20119;-76
2022/11/20 04:25:48;;;;;;;;;;;;;;;;;;5054788;28;20114;-76
2022/11/20 04:28:14;;;;;;;12.30;2.80;;;;;;;;;;5052759;28;20407;-77
2022/11/20 04:30:40;;;;;;;4.57;2.88;;;;;;;;;;5053345;28;20407;-76
2022/11/20 04:33:06;;;;;;;6.78;3.63;;;;;;;;;;5053459;28;20060;-75
2022/11/20 04:35:34;;;;;;;7.28;4.03;;;;;;;;;;5052098;28;20120;-73
2022/11/20 04:38:00;;;;;;;13.18;4.97;;;;;;;;;;5051322;28;20029;-73
2022/11/20 04:40:26;;;;;;;6.80;3.55;;;;;;;;;;5053214;28;20054;-73
2022/11/20 04:42:52;;;;;;;7.65;4.18;;;;;;;;;;5052635;28;20033;-73
2022/11/20 04:45:18;;;;;;;11.40;3.47;;;;;;;;;;5055999;28;20052;-73
2022/11/20 04:47:44;;;;;;;9.05;4.93;;;;;;;;;;5052117;28;20112;-73
2022/11/20 04:50:10;;;;;;;5.45;3.53;;;;;;;;;;5050947;28;20648;-73
2022/11/20 04:52:35;;;;;;;9.43;4.10;;;;;;;;;;5049747;28;20028;-73
2022/11/20 04:55:01;;;;;;;6.13;3.20;;;;;;;;;;5052771;28;20086;-74
2022/11/20 04:57:27;;;;;;;9.70;4.47;;;;;;;;;;5053722;28;20748;-74
2022/11/20 04:59:53;;;;;;;9.02;4.00;;;;;;;;;;5053571;28;20025;-73
2022/11/20 05:02:19;;;;;;;4.32;2.95;;;;;;;;;;5051825;28;20423;-73
2022/11/20 05:04:45;;;;;;;7.38;4.03;;;;;;;;;;5051141;28;20033;-72
2022/11/20 05:07:11;;;;;;;6.15;3.00;;;;;;;;;;5055333;28;20032;-72
2022/11/20 05:09:37;;;;;;;4.85;3.13;;;;;;;;;;5058071;28;20028;-72
2022/11/20 05:12:03;;;;;;;7.90;3.85;;;;;;;;;;5055246;28;20094;-72
2022/11/20 05:14:28;;;;;;;6.22;4.30;;;;;;;;;;5055066;28;20029;-73
2022/11/20 05:16:54;;;;;;;7.15;3.10;;;;;;;;;;5056834;28;20086;-73
2022/11/20 05:19:20;;;;;;;7.18;4.10;;;;;;;;;;5057826;28;20111;-72
2022/11/20 05:21:46;;;;;;;5.53;3.45;;;;;;;;;;5057866;28;20023;-73
2022/11/20 05:24:12;;;;;;;6.10;3.10;;;;;;;;;;5054536;28;20406;-73
2022/11/20 05:26:38;;;;;;;6.82;3.33;;;;;;;;;;5057523;28;20092;-72
2022/11/20 05:29:04;;;;;;;4.65;3.05;;;;;;;;;;5057096;28;20368;-72
2022/11/20 05:31:30;;;;;;;5.18;2.95;;;;;;;;;;5051810;28;20049;-72
2022/11/20 05:33:57;;;;;;;6.32;3.78;;;;;;;;;;5055571;28;20059;-73
2022/11/20 05:36:30;;;;;;;8.13;3.47;;;;;;;;;;5057602;28;20044;-72
2022/11/20 05:38:56;;;;;;;7.82;3.50;;;;;;;;;;5057143;28;20089;-72
2022/11/20 05:41:22;;;;;;;4.53;2.50;;;;;;;;;;5056595;28;20029;-73
2022/11/20 05:43:49;;;;;;;5.53;2.97;;;;;;;;;;5057198;28;20553;-73
2022/11/20 05:46:16;;;;;;;8.40;3.45;;;;;;;;;;5055638;28;20372;-73
2022/11/20 05:48:42;;;;;;;4.30;3.40;;;;;;;;;;5052306;28;20049;-74
2022/11/20 05:51:09;;;;;;;6.75;3.83;;;;;;;;;;5051973;28;20119;-73
2022/11/20 05:53:36;;;;;;;6.40;3.38;;;;;;;;;;5056924;28;20040;-74
2022/11/20 05:56:10;;;;;;;8.30;2.92;;;;;;;;;;5057805;28;20292;-73
2022/11/20 05:58:36;;;;;;;6.53;3.40;;;;;;;;;;5057830;28;20039;-73
2022/11/20 06:01:19;;;;;;;7.55;3.08;;;;;;;;;;5055739;28;20223;-73
2022/11/20 06:03:47;;;;;;;4.57;3.00;;;;;;;;;;5055967;28;20127;-74
2022/11/20 06:06:13;;;;;;;8.00;3.67;;;;;;;;;;5057347;28;20426;-74
2022/11/20 06:08:39;;;;;;;7.35;3.00;;;;;;;;;;5056307;28;20395;-73
2022/11/20 06:11:06;;;;;;;3.67;2.83;;;;;;;;;;5057124;28;20025;-73
2022/11/20 06:13:32;;;;;;;11.20;4.00;;;;;;;;;;5056252;28;20036;-73
2022/11/20 06:15:58;;;;;;;14.10;3.92;;;;;;;;;;5054643;28;20063;-74
2022/11/20 06:18:24;;;;;;;4.18;2.92;;;;;;;;;;5052185;28;20479;-73
2022/11/20 06:20:49;;;;;;;7.90;3.38;;;;;;;;;;5054302;28;20029;-73
2022/11/20 06:23:15;;;;;;;7.13;4.07;;;;;;;;;;5056158;28;20068;-73
2022/11/20 06:25:42;;;;;;;11.65;4.07;;;;;;;;;;5055308;28;20119;-73
2022/11/20 06:28:08;;;;;;;11.00;3.70;;;;;;;;;;5055770;28;20510;-73
2022/11/20 06:30:35;;;;;;;4.43;3.35;;;;;;;;;;5056516;28;20028;-73
2022/11/20 06:33:01;;;;;;;10.38;3.17;;;;;;;;;;5055391;28;20029;-73
2022/11/20 06:35:27;;;;;;;7.78;3.45;;;;;;;;;;5052563;28;20029;-73
2022/11/20 06:37:52;;;;;;;8.35;4.53;;;;;;;;;;5055026;28;20094;-73
2022/11/20 06:40:24;;;;;;;7.10;3.35;;;;;;;;;;5055438;28;20516;-74
2022/11/20 06:42:50;;;;;;;7.68;4.35;;;;;;;;;;5054942;28;20029;-73
2022/11/20 06:45:16;;;;;;;4.75;2.90;;;;;;;;;;5056318;28;20029;-73
2022/11/20 06:47:42;;;;;;;6.28;3.30;;;;;;;;;;5053611;28;20120;-73
2022/11/20 06:50:08;;;;;;;4.93;3.10;;;;;;;;;;5055118;28;20065;-74
2022/11/20 06:52:34;;;;;;;9.32;3.20;;;;;;;;;;5049560;28;20032;-74
2022/11/20 06:55:00;;;;;;;10.63;3.65;;;;;;;;;;5053628;28;20035;-73
2022/11/20 06:57:26;;;;;;;6.32;3.63;;;;;;;;;;5053645;28;20023;-74
2022/11/20 06:59:52;;;;;;;8.75;3.75;;;;;;;;;;5055285;28;20131;-74
2022/11/20 07:02:18;;;;;;;4.55;3.53;;;;;;;;;;5053912;28;20199;-74
2022/11/20 07:04:43;;;;;;;11.45;4.07;;;;;;;;;;5052986;28;20497;-74
2022/11/20 07:07:09;;;;;;;9.65;4.22;;;;;;;;;;5055693;28;20036;-74
2022/11/20 07:09:41;;;;;;;6.65;3.53;;;;;;;;;;5055345;28;20101;-74
2022/11/20 07:12:07;;;;;;;10.70;3.72;;;;;;;;;;5049502;28;20059;-74
2022/11/20 07:14:33;;;;;;;7.50;4.38;;;;;;;;;;5054542;28;20576;-74
2022/11/20 07:16:59;;;;;;;6.32;4.00;;;;;;;;;;5054282;28;20028;-74
2022/11/20 07:19:25;;;;;;;9.18;4.22;;;;;;;;;;5053414;28;20394;-75
2022/11/20 07:21:51;;;;;;;7.68;4.10;;;;;;;;;;5049901;28;20033;-76
2022/11/20 07:24:17;;;;;;;6.18;3.45;;;;;;;;;;5055489;28;20457;-76
2022/11/20 07:26:43;;;;;;;9.10;3.85;;;;;;;;;;5053983;28;20475;-77
2022/11/20 07:29:09;;;;;;;10.35;4.32;;;;;;;;;;5052202;28;20485;-77
2022/11/20 07:31:35;;;;;;;6.13;3.95;;;;;;;;;;5054942;28;20198;-76
2022/11/20 07:34:01;;;;;;;15.82;4.68;;;;;;;;;;5055742;28;20395;-76
2022/11/20 07:36:26;;;;;;;14.82;4.40;;;;;;;;;;5055158;28;20364;-76
2022/11/20 07:38:52;;;;;;;11.40;3.70;;;;;;;;;;5052768;28;20454;-76
2022/11/20 07:41:18;;;;;;;5.68;3.80;;;;;;;;;;5052112;28;20028;-76
2022/11/20 07:43:44;;;;;;;11.00;3.72;;;;;;;;;;5050869;28;20055;-77
2022/11/20 07:46:10;;;;;;;7.85;4.40;;;;;;;;;;5053765;28;20045;-77
2022/11/20 07:48:36;;;;;;;6.97;4.57;;;;;;;;;;5054466;28;20479;-76
2022/11/20 07:51:02;;;;;;;6.85;3.70;;;;;;;;;;5053024;28;20027;-74
2022/11/20 07:53:28;;;;;;;7.75;3.00;;;;;;;;;;5048833;28;20040;-75
2022/11/20 07:55:54;;;;;;;8.23;3.30;;;;;;;;;;5055086;28;20495;-76
2022/11/20 07:58:20;;;;;;;10.02;3.95;;;;;;;;;;5052921;28;20159;-74
2022/11/20 08:00:46;;;;;;;6.45;3.70;;;;;;;;;;5053374;28;20020;-74
2022/11/20 08:03:13;;;;;;;10.02;3.63;;;;;;;;;;5053455;28;20062;-75
2022/11/20 08:05:38;;;;;;;11.02;4.22;;;;;;;;;;5055118;28;20634;-78
2022/11/20 08:08:04;;;;;;;6.13;3.40;;;;;;;;;;5054132;28;20032;-77
2022/11/20 08:10:30;;;;;;;7.13;3.30;;;;;;;;;;5053469;28;20028;-75
2022/11/20 08:15:41;;;;;;;6.82;3.35;;;;;;;;;;5053043;28;20065;-79
2022/11/20 08:18:08;;;;;;;14.48;4.82;;;;;;;;;;5051850;28;20502;-79
2022/11/20 08:20:35;;;;;;;8.27;4.45;;;;;;;;;;5053907;28;20027;-80
2022/11/20 08:23:02;;;;;;;8.32;3.88;;;;;;;;;;5048309;28;20021;-80
2022/11/20 08:25:28;;;;;;;8.77;5.85;;;;;;;;;;5052707;28;20032;-83
2022/11/20 08:27:54;;;;;;;7.20;3.90;;;;;;;;;;5052414;28;20276;-79
2022/11/20 08:30:20;;;;;;;6.93;4.60;;;;;;;;;;5053547;28;20179;-78
2022/11/20 08:32:46;;;;;;;9.18;3.95;;;;;;;;;;5046406;28;20094;-76
2022/11/20 08:35:12;;;;;;;8.90;3.97;;;;;;;;;;5054425;28;20037;-77
2022/11/20 08:37:41;;;;;;;5.30;3.25;;;;;;;;;;5051591;28;20072;-74
2022/11/20 08:40:07;;;;;;;7.63;4.15;;;;;;;;;;5052144;28;20059;-76
2022/11/20 08:42:33;;;;;;;11.70;4.85;;;;;;;;;;5048006;28;20032;-73
2022/11/20 08:44:59;;;;;;;6.88;4.32;;;;;;;;;;5054237;28;20020;-77
2022/11/20 08:47:25;;;;;;;13.50;5.22;;;;;;;;;;5051093;28;20062;-76
2022/11/20 08:49:52;;;;;;;7.50;3.13;;;;;;;;;;5052444;28;20066;-76
2022/11/20 08:52:18;;;;;;;6.93;4.60;;;;;;;;;;5057402;28;20024;-76
2022/11/20 08:54:43;;;;;;;11.98;5.28;;;;;;;;;;5058815;28;20413;-78
2022/11/20 08:57:09;;;;;;;10.48;5.00;;;;;;;;;;5055342;28;20017;-77
2022/11/20 08:59:35;;;;;;;7.47;4.22;;;;;;;;;;5056047;28;20177;-77
2022/11/20 09:02:01;;;;;;;9.25;4.18;;;;;;;;;;5055413;28;20040;-78
2022/11/20 09:04:27;;;;;;;8.13;4.00;;;;;;;;;;5055455;28;20047;-77
2022/11/20 09:06:53;;;;;;;12.27;5.18;;;;;;;;;;5053671;28;20210;-77
2022/11/20 09:09:19;;;;;;;16.77;5.18;;;;;;;;;;5048434;28;20114;-78
2022/11/20 09:11:45;;;;;;;11.23;4.47;;;;;;;;;;5054077;28;20025;-78
2022/11/20 09:14:11;;;;;;;10.20;4.45;;;;;;;;;;5054383;28;20032;-78
2022/11/20 09:16:37;;;;;;;7.18;4.80;;;;;;;;;;5051520;28;20040;-78
2022/11/20 09:19:02;;;;;;;8.70;5.28;;;;;;;;;;5055397;28;20376;-78
2022/11/20 09:21:28;;;;;;;7.95;4.05;;;;;;;;;;5055255;28;20043;-78
2022/11/20 09:23:54;;;;;;;7.25;3.83;;;;;;;;;;5055356;28;20127;-78
2022/11/20 09:26:20;;;;;;;9.27;4.47;;;;;;;;;;5050429;28;20028;-77
2022/11/20 09:28:46;;;;;;;10.15;4.82;;;;;;;;;;5050133;28;20475;-77
2022/11/20 09:31:20;;;;;;;7.57;4.00;;;;;;;;;;5057462;28;20076;-78
2022/11/20 09:33:46;;;;;;;4.22;3.30;;;;;;;;;;5055471;28;20801;-77
2022/11/20 09:36:12;;;;;;;6.22;3.83;;;;;;;;;;5054371;28;20032;-77
2022/11/20 09:38:37;;;;;;;9.15;4.85;;;;;;;;;;5052403;28;20131;-78
2022/11/20 09:41:04;;;;;;;7.82;4.28;;;;;;;;;;5053341;28;20033;-77
2022/11/20 09:43:41;;;;;;;9.25;4.90;;;;;;;;;;5053533;28;20295;-78
2022/11/20 09:46:15;;;;;;;10.73;4.53;;;;;;;;;;5054128;28;20056;-79
2022/11/20 09:48:50;;;;;;;7.20;4.55;;;;;;;;;;5053017;28;20056;-78
2022/11/20 09:51:27;;;;;;;11.23;4.70;;;;;;;;;;5056473;28;20029;-79
2022/11/20 09:54:01;;;;;;;15.02;5.18;;;;;;;;;;5059794;28;20016;-77
2022/11/20 09:56:34;;;;;;;11.48;5.10;;;;;;;;;;5060922;28;20161;-77
2022/11/20 09:59:02;;;;;;;10.30;5.47;;;;;;;;;;5053188;28;20028;-78
2022/11/20 10:01:31;;;;;;;8.13;4.55;;;;;;;;;;5057552;28;20035;-78
2022/11/20 10:04:04;;;;;;;9.32;5.05;;;;;;;;;;5051150;28;20039;-78
2022/11/20 10:06:51;;;;;;;13.68;4.95;;;;;;;;;;5055482;28;20031;-78
2022/11/20 10:09:26;;;;;;;7.38;4.38;;;;;;;;;;5055536;28;20048;-78
2022/11/20 10:12:00;;;;;;;7.70;4.68;;;;;;;;;;5055383;28;20048;-78
2022/11/20 10:14:34;;;;;;;12.82;3.92;;;;;;;;;;5057185;28;20040;-77
2022/11/20 10:17:00;;;;;;;10.60;5.18;;;;;;;;;;5057032;28;20036;-77
2022/11/20 10:19:42;;;;;;;13.30;4.80;;;;;;;;;;5060768;28;20035;-77
2022/11/20 10:22:08;;;;;;;7.75;4.68;;;;;;;;;;5060014;28;20497;-77
2022/11/20 10:24:38;;;;;;;12.88;4.90;;;;;;;;;;5058678;28;20062;-78
2022/11/20 10:27:18;;;;;;;10.73;4.55;;;;;;;;;;5054300;28;20120;-77
2022/11/20 10:29:46;;;;;;;7.93;4.17;;;;;;;;;;5057843;28;20041;-78
2022/11/20 10:32:16;;;;;;;12.38;4.60;;;;;;;;;;5057237;28;20037;-81
2022/11/20 10:34:42;;;;;;;10.88;4.93;;;;;;;;;;5058829;28;20483;-74
2022/11/20 10:37:25;;;;;;;10.13;4.45;;;;;;;;;;5057446;28;20035;-73
2022/11/20 10:39:53;;;;;;;14.00;3.83;;;;;;;;;;5060090;28;20059;-73
2022/11/20 10:42:42;;;;;;;10.40;4.65;;;;;;;;;;5057019;28;20041;-73
2022/11/20 10:45:19;;;;;;;13.60;5.40;;;;;;;;;;5058875;28;20052;-73
2022/11/20 10:47:45;;;;;;;5.53;3.78;;;;;;;;;;5058514;28;20062;-73
2022/11/20 10:50:14;;;;;;;8.48;4.47;;;;;;;;;;5055577;28;20201;-72
2022/11/20 10:52:46;;;;;;;8.43;4.05;;;;;;;;;;5051625;28;20082;-73
2022/11/20 10:55:15;;;;;;;6.85;3.47;;;;;;;;;;5059937;28;20036;-72
2022/11/20 10:57:58;;;;;;;9.40;5.20;;;;;;;;;;5057393;28;20496;-73
2022/11/20 11:00:24;;;;;;;14.35;4.53;;;;;;;;;;5055691;28;20047;-72
2022/11/20 11:02:51;;;;;;;7.32;4.50;;;;;;;;;;5054260;28;20101;-73
2022/11/20 11:05:24;;;;;;;6.57;3.92;;;;;;;;;;5055546;28;20032;-73
2022/11/20 11:07:52;;;;;;;10.48;4.40;;;;;;;;;;5055964;28;20119;-72
2022/11/20 11:10:19;;;;;;;11.73;4.45;;;;;;;;;;5051523;28;20040;-72
2022/11/20 11:12:47;;;;;;;9.20;5.10;;;;;;;;;;5059436;28;20074;-72
2022/11/20 11:15:15;;;;;;;8.07;4.00;;;;;;;;;;5057495;28;20035;-72
2022/11/20 11:17:47;;;;;;;8.45;4.75;;;;;;;;;;5059248;28;20517;-73
2022/11/20 11:20:23;;;;;;;11.52;4.82;;;;;;;;;;5056384;28;20040;-72
2022/11/20 11:22:56;;;;;;;7.03;3.38;;;;;;;;;;5056138;28;20036;-72
2022/11/20 11:25:30;;;;;;;7.88;4.15;;;;;;;;;;5058786;28;20059;-72
2022/11/20 11:28:00;;;;;;;9.13;5.05;;;;;;;;;;5057754;28;20075;-73
2022/11/20 11:30:29;;;;;;;10.52;4.40;;;;;;;;;;5057326;28;20059;-73
2022/11/20 11:33:11;;;;;;;8.90;3.88;;;;;;;;;;5055242;28;20039;-73
2022/11/20 11:35:37;;;;;;;;;;;;;;;;;;5049874;28;20573;-73
2022/11/20 11:38:05;;;;;;;5.57;3.33;;;;;;;;;;5058800;28;19927;-73
2022/11/20 11:40:32;;;;;;;7.50;4.07;;;;;;;;;;5057908;28;20029;-74
2022/11/20 11:42:59;;;;;;;6.18;3.63;;;;;;;;;;5053181;28;20036;-73
2022/11/20 11:45:26;;;;;;;8.13;4.30;;;;;;;;;;5053722;28;20093;-73
2022/11/20 11:47:53;;;;;;;9.07;4.22;;;;;;;;;;5057761;28;20513;-73
2022/11/20 11:50:21;;;;;;;6.68;3.85;;;;;;;;;;5057288;28;20041;-73
2022/11/20 11:52:55;;;;;;;8.60;4.90;;;;;;;;;;5056326;28;20100;-73
2022/11/20 11:55:26;;;;;;;10.95;5.03;;;;;;;;;;5053776;28;20033;-73
2022/11/20 11:58:11;;;;;;;14.98;7.57;;;;;;;;;;5054182;28;20071;-73
2022/11/20 12:00:42;;;;;;;15.82;6.95;;;;;;;;;;5051993;28;20125;-73
2022/11/20 12:03:22;;;;;;;33.30;12.30;;;;;;;;;;5050322;28;20507;-73
2022/11/20 12:05:54;;;;;;;11.02;6.53;;;;;;;;;;5049468;28;20601;-73
2022/11/20 12:08:25;;;;;;;18.52;10.35;;;;;;;;;;5054190;28;20131;-73
2022/11/20 12:11:12;;;;;;;12.80;5.93;;;;;;;;;;5055765;28;20047;-73
2022/11/20 12:13:45;;;;;;;5.57;3.45;;;;;;;;;;5048040;28;20485;-76
2022/11/20 12:16:13;;;;;;;5.32;3.70;;;;;;;;;;5046063;28;20028;-77
2022/11/20 12:18:39;;;;;;;8.52;4.00;;;;;;;;;;5050847;28;20479;-75
2022/11/20 12:21:27;;;;;;;7.88;4.53;;;;;;;;;;5044751;28;20232;-75
2022/11/20 12:24:05;;;;;;;11.80;4.82;;;;;;;;;;5049237;28;20064;-73
2022/11/20 12:26:39;;;;;;;5.43;3.65;;;;;;;;;;5047469;28;20032;-75
2022/11/20 12:29:11;;;;;;;12.10;5.72;;;;;;;;;;5049327;28;20111;-76
2022/11/20 12:31:56;;;;;;;8.20;3.50;;;;;;;;;;5051258;28;20495;-77
2022/11/20 12:34:35;;;;;;;10.02;4.32;;;;;;;;;;5049582;28;20138;-80
2022/11/20 12:37:10;;;;;;;10.07;4.32;;;;;;;;;;5045610;28;20021;-76
2022/11/20 12:39:42;;;;;;;11.70;4.82;;;;;;;;;;5048798;28;20456;-77
2022/11/20 12:45:11;;;;;;;6.22;3.65;;;;;;;;;;5046008;28;20050;-77
2022/11/20 12:47:56;;;;;;;9.88;4.40;;;;;;;;;;5046679;28;20098;-77
2022/11/20 12:50:33;;;;;;;5.47;3.40;;;;;;;;;;5045383;28;20037;-75
2022/11/20 12:53:01;;;;;;;6.10;3.67;;;;;;;;;;5045262;28;20033;-74
2022/11/20 12:55:46;;;;;;;7.93;3.78;;;;;;;;;;5045229;28;20033;-79
2022/11/20 12:58:17;;;;;;;7.03;4.05;;;;;;;;;;5046537;28;20497;-77
2022/11/20 13:00:56;;;;;;;7.82;3.85;;;;;;;;;;5044859;28;20040;-77
2022/11/20 13:03:25;;;;;;;7.53;3.88;;;;;;;;;;5044673;28;20037;-76
2022/11/20 13:06:13;;;;;;;9.48;5.30;;;;;;;;;;5042484;28;20044;-76
2022/11/20 13:08:40;;;;;;;9.05;4.22;;;;;;;;;;5040991;28;20047;-77
2022/11/20 13:11:26;;;;;;;25.60;11.00;;;;;;;;;;5045476;28;20036;-77
2022/11/20 13:14:11;;;;;;;33.13;14.00;;;;;;;;;;5047072;28;20748;-78
2022/11/20 13:16:40;;;;;;;9.30;4.45;;;;;;;;;;5045676;28;20024;-77
2022/11/20 13:19:09;;;;;;;18.23;6.85;;;;;;;;;;5043865;28;20032;-77
2022/11/20 13:21:35;;;;;;;19.08;8.20;;;;;;;;;;5046313;28;20056;-77
2022/11/20 13:24:08;;;;;;;19.20;8.43;;;;;;;;;;5049781;28;20067;-78
2022/11/20 13:26:34;;;;;;;11.75;5.50;;;;;;;;;;5048906;28;20033;-78
2022/11/20 13:29:11;;;;;;;19.30;7.47;;;;;;;;;;5048324;28;20028;-78
2022/11/20 13:31:40;;;;;;;21.45;8.25;;;;;;;;;;5053150;28;20037;-79
2022/11/20 13:34:07;;;;;;;11.32;6.15;;;;;;;;;;5052611;28;20044;-76
2022/11/20 13:36:36;;;;;;;13.23;5.22;;;;;;;;;;5052560;28;20178;-81
2022/11/20 13:39:04;;;;;;;11.45;4.97;;;;;;;;;;5051195;28;20127;-77
2022/11/20 13:41:33;;;;;;;14.98;4.45;;;;;;;;;;5056914;28;20217;-75
2022/11/20 13:44:05;;;;;;;19.60;7.40;;;;;;;;;;5057145;28;20037;-82
2022/11/20 13:46:38;;;;;;;16.05;6.38;;;;;;;;;;5057653;28;20518;-78
2022/11/20 13:49:09;;;;;;;23.27;6.00;;;;;;;;;;5057014;28;20127;-79
2022/11/20 13:51:45;;;;;;;16.15;4.82;;;;;;;;;;5053868;28;20483;-79
2022/11/20 13:54:22;;;;;;;7.85;4.70;;;;;;;;;;5055017;28;20037;-79
2022/11/20 13:56:54;;;;;;;8.98;3.85;;;;;;;;;;5048787;28;20036;-73
2022/11/20 13:59:29;;;;;;;10.18;5.78;;;;;;;;;;5047708;28;20388;-76
2022/11/20 14:01:55;;;;;;;11.02;4.63;;;;;;;;;;5053444;28;20053;-76
2022/11/20 14:04:27;;;;;;;10.95;5.50;;;;;;;;;;5053441;28;20078;-76
2022/11/20 14:06:53;;;;;;;12.55;6.40;;;;;;;;;;5050747;28;20048;-75
2022/11/20 14:09:29;;;;;;;9.57;4.63;;;;;;;;;;5052670;28;20075;-76
2022/11/20 14:11:55;;;;;;;14.18;5.07;;;;;;;;;;5050854;28;20128;-70
2022/11/20 14:14:22;;;;;;;9.88;3.95;;;;;;;;;;5049298;28;20115;-74
2022/11/20 14:16:49;;;;;;;10.18;4.28;;;;;;;;;;5052880;28;20025;-73
2022/11/20 14:19:20;;;;;;;9.85;5.72;;;;;;;;;;5052997;28;20039;-73
2022/11/20 14:21:50;;;;;;;8.27;4.20;;;;;;;;;;5047891;28;20192;-72
2022/11/20 14:24:20;;;;;;;10.63;4.75;;;;;;;;;;5050905;28;20391;-70
2022/11/20 14:26:49;;;;;;;7.60;4.03;;;;;;;;;;5048015;28;20805;-74
2022/11/20 14:29:16;;;;;;;10.15;4.40;;;;;;;;;;5049544;28;20119;-74
2022/11/20 14:31:43;;;;;;;8.43;4.20;;;;;;;;;;5051029;28;20166;-75
2022/11/20 14:34:19;;;;;;;8.18;4.53;;;;;;;;;;5050183;28;20033;-74
2022/11/20 14:36:45;;;;;;;11.02;4.85;;;;;;;;;;5050994;28;20436;-75
2022/11/20 14:39:21;;;;;;;8.43;4.00;;;;;;;;;;5049540;28;20112;-76
2022/11/20 14:41:53;;;;;;;9.80;3.70;;;;;;;;;;5053634;28;20064;-73
2022/11/20 14:44:26;;;;;;;7.03;3.72;;;;;;;;;;5053172;28;20074;-74
2022/11/20 14:46:53;;;;;;;10.40;4.13;;;;;;;;;;5048457;28;20529;-73
2022/11/20 14:49:19;;;;;;;6.68;3.30;;;;;;;;;;5050979;28;20045;-74
2022/11/20 14:51:46;;;;;;;13.77;4.35;;;;;;;;;;5050874;28;20105;-73
2022/11/20 14:54:16;;;;;;;7.95;4.05;;;;;;;;;;5050561;28;20671;-73
2022/11/20 14:56:56;;;;;;;16.73;4.68;;;;;;;;;;5046770;28;20529;-76